createdAt,value
2018-05-09T00:00:04.127Z,22.87
2018-05-09T00:02:30.196Z,22.91
2018-05-09T00:04:56.189Z,22.97
2018-05-09T00:07:22.166Z,23.06
2018-05-09T00:09:48.114Z,22.88
2018-05-09T00:12:14.081Z,22.89
2018-05-09T00:14:40.038Z,22.89
2018-05-09T00:17:06.002Z,22.90
2018-05-09T00:19:31.959Z,22.94
2018-05-09T00:21:57.945Z,22.95
2018-05-09T00:24:23.914Z,22.95
2018-05-09T00:26:49.887Z,22.94
2018-05-09T00:29:15.856Z,22.94
2018-05-09T00:31:41.856Z,22.92
2018-05-09T00:34:07.824Z,22.96
2018-05-09T00:36:33.811Z,22.92
2018-05-09T00:38:59.762Z,22.91
2018-05-09T00:41:25.755Z,22.95
2018-05-09T00:43:51.713Z,22.96
2018-05-09T00:46:17.690Z,22.87
2018-05-09T00:48:43.661Z,22.83
2018-05-09T00:51:09.652Z,22.77
2018-05-09T00:53:35.623Z,22.74
2018-05-09T00:56:01.682Z,22.73
2018-05-09T00:58:27.632Z,22.74
2018-05-09T01:00:53.610Z,22.74
2018-05-09T01:03:19.560Z,22.74
2018-05-09T01:05:45.536Z,22.75
2018-05-09T01:08:11.507Z,22.80
2018-05-09T01:10:37.484Z,22.80
2018-05-09T01:13:03.446Z,22.80
2018-05-09T01:15:29.417Z,22.77
2018-05-09T01:17:55.393Z,22.77
2018-05-09T01:20:21.361Z,22.73
2018-05-09T01:22:47.333Z,22.74
2018-05-09T01:25:13.316Z,22.74
2018-05-09T01:27:39.303Z,22.76
2018-05-09T01:30:05.269Z,22.73
2018-05-09T01:32:31.238Z,22.73
2018-05-09T01:34:57.203Z,22.69
2018-05-09T01:37:23.186Z,22.68
2018-05-09T01:39:49.129Z,22.74
2018-05-09T01:42:15.098Z,22.71
2018-05-09T01:44:41.054Z,22.69
2018-05-09T01:47:07.051Z,22.69
2018-05-09T01:49:33.023Z,22.71
2018-05-09T01:51:58.988Z,22.76
2018-05-09T01:54:24.944Z,22.71
2018-05-09T01:56:50.900Z,22.71
2018-05-09T01:59:16.849Z,22.67
2018-05-09T02:01:42.917Z,22.67
2018-05-09T02:04:08.891Z,22.64
2018-05-09T02:06:34.855Z,22.67
2018-05-09T02:09:00.859Z,22.69
2018-05-09T02:11:26.814Z,22.67
2018-05-09T02:13:52.810Z,22.69
2018-05-09T02:16:18.777Z,22.66
2018-05-09T02:18:44.749Z,22.64
2018-05-09T02:21:10.709Z,22.69
2018-05-09T02:23:36.664Z,22.67
2018-05-09T02:26:02.657Z,22.68
2018-05-09T02:28:28.603Z,22.67
2018-05-09T02:30:54.599Z,22.67
2018-05-09T02:33:20.577Z,22.69
2018-05-09T02:35:46.573Z,22.69
2018-05-09T02:38:12.591Z,22.71
2018-05-09T02:40:38.549Z,22.70
2018-05-09T02:43:04.492Z,22.68
2018-05-09T02:45:30.489Z,22.66
2018-05-09T02:47:56.446Z,22.64
2018-05-09T02:50:22.423Z,22.64
2018-05-09T02:52:48.368Z,22.66
2018-05-09T02:55:14.375Z,22.65
2018-05-09T02:57:40.322Z,22.68
2018-05-09T03:00:06.320Z,22.68
2018-05-09T03:02:32.272Z,22.63
2018-05-09T03:04:58.215Z,22.67
2018-05-09T03:07:24.259Z,22.68
2018-05-09T03:09:50.245Z,22.65
2018-05-09T03:12:16.223Z,22.65
2018-05-09T03:14:42.184Z,22.71
2018-05-09T03:17:08.164Z,22.71
2018-05-09T03:19:34.112Z,22.69
2018-05-09T03:22:00.133Z,22.69
2018-05-09T03:24:26.084Z,22.68
2018-05-09T03:26:52.056Z,22.69
2018-05-09T03:29:18.034Z,22.72
2018-05-09T03:31:44.001Z,22.69
2018-05-09T03:34:09.974Z,22.68
2018-05-09T03:36:35.957Z,22.71
2018-05-09T03:39:01.927Z,22.66
2018-05-09T03:41:27.869Z,22.66
2018-05-09T03:43:53.818Z,22.68
2018-05-09T03:46:19.785Z,22.66
2018-05-09T03:48:45.738Z,22.68
2018-05-09T03:51:11.721Z,22.66
2018-05-09T03:53:37.687Z,22.66
2018-05-09T03:56:03.684Z,22.69
2018-05-09T03:58:29.635Z,22.68
2018-05-09T04:00:55.652Z,22.68
2018-05-09T04:03:21.638Z,22.75
2018-05-09T04:05:47.594Z,22.73
2018-05-09T04:08:13.586Z,22.73
2018-05-09T04:10:39.537Z,22.71
2018-05-09T04:13:05.491Z,22.74
2018-05-09T04:15:31.453Z,22.70
2018-05-09T04:17:57.396Z,22.73
2018-05-09T04:20:23.346Z,22.72
2018-05-09T04:22:49.301Z,22.70
2018-05-09T04:25:15.265Z,22.66
2018-05-09T04:27:41.214Z,22.68
2018-05-09T04:30:07.208Z,22.69
2018-05-09T04:32:33.284Z,22.66
2018-05-09T04:34:59.257Z,22.66
2018-05-09T04:37:25.198Z,22.68
2018-05-09T04:39:51.148Z,22.65
2018-05-09T04:42:17.114Z,22.66
2018-05-09T04:44:43.082Z,22.68
2018-05-09T04:47:09.041Z,22.69
2018-05-09T04:49:35.017Z,22.72
2018-05-09T04:52:01.003Z,22.75
2018-05-09T04:54:26.979Z,22.71
2018-05-09T04:56:52.923Z,22.72
2018-05-09T04:59:18.891Z,22.71
2018-05-09T05:01:44.867Z,22.73
2018-05-09T05:04:10.856Z,22.72
2018-05-09T05:06:36.829Z,22.73
2018-05-09T05:09:02.803Z,22.69
2018-05-09T05:11:28.759Z,22.70
2018-05-09T05:13:54.729Z,22.70
2018-05-09T05:16:20.691Z,22.71
2018-05-09T05:18:46.649Z,22.73
2018-05-09T05:21:12.628Z,22.71
2018-05-09T05:23:38.596Z,22.71
2018-05-09T05:26:04.617Z,22.73
2018-05-09T05:28:30.586Z,22.70
2018-05-09T05:30:56.578Z,22.67
2018-05-09T05:33:22.536Z,22.68
2018-05-09T05:35:48.500Z,22.84
2018-05-09T05:38:14.460Z,22.75
2018-05-09T05:40:41.531Z,22.77
2018-05-09T05:43:07.490Z,22.74
2018-05-09T05:45:33.461Z,22.72
2018-05-09T05:47:59.465Z,22.71
2018-05-09T05:50:25.465Z,22.73
2018-05-09T05:52:51.448Z,22.75
2018-05-09T05:55:17.396Z,22.72
2018-05-09T05:57:43.380Z,22.71
2018-05-09T06:00:09.337Z,22.71
2018-05-09T06:02:35.336Z,22.72
2018-05-09T06:05:01.294Z,22.74
2018-05-09T06:07:27.280Z,22.82
2018-05-09T06:09:53.228Z,22.85
2018-05-09T06:12:19.206Z,22.99
2018-05-09T06:14:45.155Z,23.00
2018-05-09T06:17:11.149Z,22.96
2018-05-09T06:19:37.100Z,23.02
2018-05-09T06:22:03.049Z,22.96
2018-05-09T06:24:29.009Z,22.85
2018-05-09T06:26:54.975Z,22.89
2018-05-09T06:29:20.960Z,22.90
2018-05-09T06:31:46.974Z,22.89
2018-05-09T06:34:12.941Z,22.89
2018-05-09T06:36:38.912Z,22.89
2018-05-09T06:39:04.859Z,22.87
2018-05-09T06:41:30.839Z,22.93
2018-05-09T06:43:56.808Z,22.89
2018-05-09T06:46:22.794Z,22.97
2018-05-09T06:48:48.758Z,22.88
2018-05-09T06:51:14.724Z,22.85
2018-05-09T06:53:40.685Z,22.77
2018-05-09T06:56:06.679Z,22.79
2018-05-09T06:58:32.708Z,22.81
2018-05-09T07:00:58.756Z,22.79
2018-05-09T07:03:25.805Z,22.86
2018-05-09T07:05:51.825Z,22.85
2018-05-09T07:08:17.813Z,22.79
2018-05-09T07:10:43.895Z,22.76
2018-05-09T07:13:09.922Z,22.75
2018-05-09T07:15:35.941Z,22.75
2018-05-09T07:18:01.983Z,22.79
2018-05-09T07:20:27.965Z,22.79
2018-05-09T07:22:53.940Z,22.77
2018-05-09T07:25:19.960Z,22.78
2018-05-09T07:27:45.925Z,22.75
2018-05-09T07:30:11.947Z,22.75
2018-05-09T07:32:37.924Z,22.77
2018-05-09T07:35:03.883Z,22.86
2018-05-09T07:37:29.887Z,22.93
2018-05-09T07:39:55.830Z,22.96
2018-05-09T07:42:21.800Z,22.96
2018-05-09T07:44:47.902Z,23.02
2018-05-09T07:49:46.304Z,22.94
2018-05-09T07:52:12.284Z,22.90
2018-05-09T07:54:38.253Z,22.94
2018-05-09T07:57:06.246Z,22.97
2018-05-09T07:59:32.222Z,22.97
2018-05-09T08:01:58.167Z,22.96
2018-05-09T08:04:24.143Z,22.93
2018-05-09T08:06:50.103Z,22.91
2018-05-09T08:09:16.073Z,22.98
2018-05-09T08:11:42.117Z,22.96
2018-05-09T08:14:08.100Z,22.97
2018-05-09T08:16:34.072Z,22.96
2018-05-09T08:19:00.067Z,22.94
2018-05-09T08:21:26.034Z,22.95
2018-05-09T08:23:52.085Z,22.92
2018-05-09T08:26:17.988Z,22.95
2018-05-09T08:28:43.941Z,22.97
2018-05-09T08:31:09.930Z,23.09
2018-05-09T08:33:35.953Z,22.86
2018-05-09T08:36:01.954Z,22.81
2018-05-09T08:38:27.925Z,22.83
2018-05-09T08:40:53.893Z,22.84
2018-05-09T08:43:19.904Z,22.84
2018-05-09T08:45:45.885Z,22.82
2018-05-09T08:48:11.868Z,22.84
2018-05-09T08:50:37.826Z,22.87
2018-05-09T08:53:03.848Z,22.88
2018-05-09T08:55:29.848Z,22.87
2018-05-09T08:57:55.795Z,22.86
2018-05-09T09:00:21.870Z,22.87
2018-05-09T09:02:47.812Z,22.89
2018-05-09T09:05:13.790Z,22.93
2018-05-09T09:07:39.868Z,22.94
2018-05-09T09:10:05.845Z,22.91
2018-05-09T09:12:31.828Z,22.97
2018-05-09T09:14:57.795Z,22.93
2018-05-09T09:17:23.872Z,22.93
2018-05-09T09:19:49.840Z,22.88
2018-05-09T09:22:15.820Z,22.83
2018-05-09T09:24:41.790Z,22.86
2018-05-09T09:27:07.761Z,22.87
2018-05-09T09:29:33.817Z,22.86
2018-05-09T09:31:59.810Z,22.89
2018-05-09T09:34:25.766Z,22.85
2018-05-09T09:36:51.725Z,22.89
2018-05-09T09:39:17.687Z,22.85
2018-05-09T09:41:43.648Z,22.84
2018-05-09T09:44:09.617Z,22.86
2018-05-09T09:46:39.383Z,22.87
2018-05-09T09:49:05.377Z,22.90
2018-05-09T09:51:31.336Z,22.84
2018-05-09T09:53:57.367Z,22.83
2018-05-09T09:56:23.288Z,22.86
2018-05-09T09:58:49.257Z,22.85
2018-05-09T10:01:15.234Z,22.87
2018-05-09T10:03:41.199Z,22.85
2018-05-09T10:06:07.178Z,22.89
2018-05-09T10:08:33.146Z,22.89
2018-05-09T10:10:59.088Z,22.87
2018-05-09T10:13:25.048Z,22.87
2018-05-09T10:15:51.003Z,22.84
2018-05-09T10:18:17.068Z,22.88
2018-05-09T10:20:44.170Z,22.86
2018-05-09T10:23:10.341Z,22.86
2018-05-09T10:25:36.272Z,22.82
2018-05-09T10:28:02.248Z,22.82
2018-05-09T10:30:28.226Z,22.84
2018-05-09T10:32:54.197Z,22.84
2018-05-09T10:35:20.161Z,22.87
2018-05-09T10:37:46.127Z,22.87
2018-05-09T10:40:12.095Z,22.88
2018-05-09T10:42:38.077Z,22.83
2018-05-09T10:45:04.045Z,22.87
2018-05-09T10:47:30.038Z,22.88
2018-05-09T10:49:55.962Z,22.86
2018-05-09T10:52:25.275Z,22.83
2018-05-09T10:54:51.248Z,22.86
2018-05-09T10:57:17.311Z,22.88
2018-05-09T10:59:43.208Z,22.86
2018-05-09T11:02:09.187Z,22.88
2018-05-09T11:04:35.172Z,22.88
2018-05-09T11:07:01.145Z,22.89
2018-05-09T11:09:27.089Z,22.85
2018-05-09T11:11:53.044Z,22.88
2018-05-09T11:14:19.079Z,22.85
2018-05-09T11:16:44.975Z,22.85
2018-05-09T11:19:10.955Z,22.89
2018-05-09T11:21:36.921Z,22.85
2018-05-09T11:24:02.922Z,22.82
2018-05-09T11:26:28.912Z,22.85
2018-05-09T11:28:54.872Z,22.83
2018-05-09T11:31:20.821Z,22.87
2018-05-09T11:33:46.780Z,22.87
2018-05-09T11:36:12.767Z,22.89
2018-05-09T11:38:38.756Z,22.88
2018-05-09T11:41:06.650Z,22.84
2018-05-09T11:43:32.700Z,22.98
2018-05-09T11:45:58.661Z,22.98
2018-05-09T11:48:24.706Z,22.88
2018-05-09T11:50:50.667Z,22.85
2018-05-09T11:53:16.762Z,22.83
2018-05-09T11:55:43.679Z,22.81
2018-05-09T11:58:09.664Z,22.78
2018-05-09T12:00:35.621Z,22.85
2018-05-09T12:03:01.585Z,22.81
2018-05-09T12:05:27.548Z,22.84
2018-05-09T12:07:53.502Z,22.84
2018-05-09T12:10:19.590Z,22.86
2018-05-09T12:12:45.452Z,22.84
2018-05-09T12:17:46.423Z,22.83
2018-05-09T12:20:12.435Z,22.84
2018-05-09T12:22:38.401Z,22.82
2018-05-09T12:25:04.367Z,22.88
2018-05-09T12:27:30.396Z,22.88
2018-05-09T12:29:56.361Z,22.83
2018-05-09T12:32:22.378Z,22.86
2018-05-09T12:34:48.346Z,22.86
2018-05-09T12:37:14.297Z,22.82
2018-05-09T12:39:40.274Z,22.95
2018-05-09T12:42:06.242Z,22.89
2018-05-09T12:44:32.235Z,22.88
2018-05-09T12:46:58.198Z,22.94
2018-05-09T12:49:24.207Z,22.98
2018-05-09T12:51:54.424Z,22.96
2018-05-09T12:54:20.409Z,22.96
2018-05-09T12:56:48.422Z,23.01
2018-05-09T12:59:14.392Z,23.02
2018-05-09T13:01:40.357Z,22.97
2018-05-09T13:04:06.317Z,22.97
2018-05-09T13:06:37.671Z,22.98
2018-05-09T13:09:03.649Z,23.00
2018-05-09T13:11:29.630Z,22.98
2018-05-09T13:13:55.666Z,22.99
2018-05-09T13:16:21.623Z,22.96
2018-05-09T13:21:18.840Z,22.99
2018-05-09T13:23:44.793Z,22.97
2018-05-09T13:26:14.981Z,22.98
2018-05-09T13:28:40.972Z,23.02
2018-05-09T13:31:06.939Z,22.98
2018-05-09T13:33:32.890Z,22.98
2018-05-09T13:35:58.877Z,22.97
2018-05-09T13:38:24.841Z,23.00
2018-05-09T13:40:50.802Z,23.05
2018-05-09T13:43:16.784Z,23.02
2018-05-09T13:45:42.730Z,23.26
2018-05-09T13:48:08.677Z,23.10
2018-05-09T13:50:34.635Z,23.06
2018-05-09T13:55:32.678Z,23.13
2018-05-09T13:57:58.652Z,23.13
2018-05-09T14:00:24.637Z,23.07
2018-05-09T14:02:54.349Z,23.03
2018-05-09T14:05:20.311Z,23.21
2018-05-09T14:07:46.309Z,23.00
2018-05-09T14:10:12.415Z,22.99
2018-05-09T14:12:38.381Z,22.94
2018-05-09T14:15:04.330Z,22.97
2018-05-09T14:17:30.289Z,22.93
2018-05-09T14:19:56.297Z,22.97
2018-05-09T14:22:22.296Z,22.96
2018-05-09T14:24:48.264Z,22.95
2018-05-09T14:27:14.243Z,22.97
2018-05-09T14:29:40.190Z,23.01
2018-05-09T14:32:06.199Z,22.99
2018-05-09T14:34:32.132Z,22.98
2018-05-09T14:36:58.134Z,22.94
2018-05-09T14:39:24.087Z,22.93
2018-05-09T14:41:50.053Z,22.96
2018-05-09T14:44:15.996Z,22.95
2018-05-09T14:46:42.035Z,22.95
2018-05-09T14:49:08.021Z,22.97
2018-05-09T14:51:33.970Z,22.95
2018-05-09T14:53:59.932Z,22.98
2018-05-09T14:56:25.897Z,22.98
2018-05-09T14:58:51.885Z,23.00
2018-05-09T15:01:17.826Z,22.99
2018-05-09T15:03:43.796Z,23.00
2018-05-09T15:06:09.757Z,23.04
2018-05-09T15:08:35.822Z,23.06
2018-05-09T15:11:01.802Z,23.00
2018-05-09T15:13:27.765Z,22.99
2018-05-09T15:15:53.750Z,23.02
2018-05-09T15:18:19.694Z,23.24
2018-05-09T15:20:45.710Z,23.15
2018-05-09T15:23:11.705Z,22.96
2018-05-09T15:25:37.694Z,22.95
2018-05-09T15:28:03.641Z,23.02
2018-05-09T15:30:29.614Z,23.01
2018-05-09T15:32:55.678Z,23.03
2018-05-09T15:35:21.537Z,23.07
2018-05-09T15:37:47.541Z,23.03
2018-05-09T15:40:13.523Z,22.99
2018-05-09T15:42:39.489Z,23.05
2018-05-09T15:45:05.446Z,23.07
2018-05-09T15:47:31.424Z,23.05
2018-05-09T15:49:57.393Z,23.03
2018-05-09T15:52:23.362Z,23.03
2018-05-09T15:54:49.341Z,23.01
2018-05-09T15:57:15.299Z,23.04
2018-05-09T15:59:41.270Z,22.99
2018-05-09T16:02:07.235Z,23.04
2018-05-09T16:04:33.204Z,23.00
2018-05-09T16:06:59.151Z,23.00
2018-05-09T16:09:25.143Z,22.99
2018-05-09T16:11:51.094Z,23.08
2018-05-09T16:14:17.075Z,23.05
2018-05-09T16:16:43.054Z,23.03
2018-05-09T16:19:09.018Z,23.04
2018-05-09T16:21:35.011Z,23.01
2018-05-09T16:24:00.975Z,23.05
2018-05-09T16:26:26.948Z,23.04
2018-05-09T16:28:52.908Z,23.03
2018-05-09T16:31:18.956Z,23.02
2018-05-09T16:33:44.905Z,22.99
2018-05-09T16:36:10.981Z,23.03
2018-05-09T16:38:36.854Z,23.04
2018-05-09T16:41:02.824Z,23.08
2018-05-09T16:43:28.788Z,23.05
2018-05-09T16:45:54.880Z,23.05
2018-05-09T16:48:20.845Z,23.03
2018-05-09T16:50:46.800Z,23.00
2018-05-09T16:53:12.845Z,22.97
2018-05-09T16:55:42.328Z,22.98
2018-05-09T16:58:08.300Z,23.04
2018-05-09T17:00:34.301Z,23.04
2018-05-09T17:03:00.275Z,23.10
2018-05-09T17:05:26.320Z,23.20
2018-05-09T17:07:52.241Z,23.08
2018-05-09T17:10:18.209Z,23.07
2018-05-09T17:12:44.175Z,23.16
2018-05-09T17:15:10.155Z,23.09
2018-05-09T17:17:36.121Z,22.94
2018-05-09T17:20:04.164Z,22.96
2018-05-09T17:22:30.269Z,22.97
2018-05-09T17:24:56.249Z,22.96
2018-05-09T17:27:22.252Z,22.97
2018-05-09T17:29:48.217Z,22.98
2018-05-09T17:32:14.192Z,22.98
2018-05-09T17:34:40.228Z,22.99
2018-05-09T17:37:06.227Z,23.14
2018-05-09T17:39:32.200Z,23.14
2018-05-09T17:41:58.191Z,23.03
2018-05-09T17:44:24.169Z,23.05
2018-05-09T17:46:50.151Z,23.02
2018-05-09T17:49:16.132Z,23.04
2018-05-09T17:51:42.103Z,23.06
2018-05-09T17:54:08.203Z,23.08
2018-05-09T17:56:34.172Z,23.04
2018-05-09T17:59:00.263Z,23.07
2018-05-09T18:01:26.117Z,23.29
2018-05-09T18:03:52.288Z,23.29
2018-05-09T18:06:18.155Z,23.27
2018-05-09T18:08:44.125Z,23.38
2018-05-09T18:11:10.121Z,23.06
2018-05-09T18:13:36.090Z,23.01
2018-05-09T18:16:02.053Z,23.00
2018-05-09T18:18:28.058Z,23.02
2018-05-09T18:20:59.901Z,23.00
2018-05-09T18:23:25.870Z,23.01
2018-05-09T18:25:51.842Z,23.02
2018-05-09T18:28:17.809Z,23.04
2018-05-09T18:30:43.776Z,23.03
2018-05-09T18:33:09.821Z,23.03
2018-05-09T18:35:39.272Z,23.00
2018-05-09T18:38:08.676Z,23.00
2018-05-09T18:40:34.627Z,23.02
2018-05-09T18:43:00.615Z,23.02
2018-05-09T18:45:26.557Z,23.07
2018-05-09T18:47:52.528Z,23.04
2018-05-09T18:50:18.498Z,23.05
2018-05-09T18:52:44.460Z,23.11
2018-05-09T18:55:10.421Z,23.10
2018-05-09T18:57:36.373Z,23.09
2018-05-09T19:00:02.349Z,23.08
2018-05-09T19:02:28.303Z,23.13
2018-05-09T19:04:54.345Z,23.09
2018-05-09T19:07:20.315Z,23.05
2018-05-09T19:09:46.306Z,23.06
2018-05-09T19:12:12.272Z,23.08
2018-05-09T19:14:38.237Z,23.07
2018-05-09T19:17:08.005Z,23.08
2018-05-09T19:19:33.992Z,23.10
2018-05-09T19:21:59.999Z,23.08
2018-05-09T19:24:25.981Z,23.09
2018-05-09T19:26:51.966Z,23.09
2018-05-09T19:29:17.958Z,23.10
2018-05-09T19:31:43.919Z,23.10
2018-05-09T19:34:09.944Z,23.10
2018-05-09T19:36:35.893Z,23.13
2018-05-09T19:39:01.857Z,23.10
2018-05-09T19:41:27.940Z,23.09
2018-05-09T19:43:53.867Z,23.11
2018-05-09T19:46:21.895Z,23.11
2018-05-09T19:48:47.889Z,23.13
2018-05-09T19:51:13.902Z,23.11
2018-05-09T19:53:39.872Z,23.10
2018-05-09T19:56:05.857Z,23.08
2018-05-09T19:58:31.813Z,23.09
2018-05-09T20:00:57.789Z,23.08
2018-05-09T20:03:23.789Z,23.07
2018-05-09T20:05:49.759Z,23.05
2018-05-09T20:08:15.716Z,23.09
2018-05-09T20:10:41.697Z,23.08
2018-05-09T20:13:07.693Z,23.09
2018-05-09T20:15:33.666Z,23.11
2018-05-09T20:17:59.628Z,23.13
2018-05-09T20:20:25.590Z,23.12
2018-05-09T20:22:51.591Z,23.10
2018-05-09T20:25:17.584Z,23.12
2018-05-09T20:27:44.554Z,23.09
2018-05-09T20:30:10.521Z,23.08
2018-05-09T20:32:36.500Z,23.05
2018-05-09T20:35:02.488Z,23.22
2018-05-09T20:37:28.483Z,23.21
2018-05-09T20:39:54.454Z,23.19
2018-05-09T20:42:20.431Z,23.03
2018-05-09T20:44:46.378Z,23.04
2018-05-09T20:47:12.348Z,23.07
2018-05-09T20:49:38.335Z,23.06
2018-05-09T20:52:04.305Z,23.05
2018-05-09T20:54:30.271Z,23.11
2018-05-09T20:56:56.226Z,23.08
2018-05-09T20:59:22.182Z,23.10
2018-05-09T21:01:48.143Z,23.06
2018-05-09T21:04:14.155Z,23.08
2018-05-09T21:06:40.146Z,23.11
2018-05-09T21:09:06.145Z,23.15
2018-05-09T21:11:32.143Z,23.14
2018-05-09T21:13:58.109Z,23.15
2018-05-09T21:16:24.078Z,23.10
2018-05-09T21:18:50.037Z,23.12
2018-05-09T21:21:15.985Z,23.11
2018-05-09T21:23:41.928Z,23.13
2018-05-09T21:26:07.929Z,23.27
2018-05-09T21:28:33.865Z,23.08
2018-05-09T21:30:59.838Z,23.09
2018-05-09T21:33:25.870Z,23.05
2018-05-09T21:35:52.101Z,23.06
2018-05-09T21:38:18.085Z,23.03
2018-05-09T21:40:44.104Z,23.01
2018-05-09T21:43:10.011Z,23.01
2018-05-09T21:45:35.969Z,23.03
2018-05-09T21:48:01.944Z,23.02
2018-05-09T21:50:27.919Z,23.05
2018-05-09T21:52:53.877Z,23.06
2018-05-09T21:55:19.835Z,23.05
2018-05-09T21:57:45.790Z,23.06
2018-05-09T22:00:11.784Z,23.07
2018-05-09T22:02:37.745Z,23.03
2018-05-09T22:05:03.817Z,23.01
2018-05-09T22:07:29.776Z,23.02
2018-05-09T22:09:55.734Z,23.04
2018-05-09T22:12:21.677Z,23.05
2018-05-09T22:14:47.660Z,23.03
2018-05-09T22:17:13.605Z,23.01
2018-05-09T22:19:39.588Z,23.03
2018-05-09T22:22:05.556Z,23.03
2018-05-09T22:24:31.526Z,23.04
2018-05-09T22:26:57.517Z,23.01
2018-05-09T22:29:23.469Z,23.00
2018-05-09T22:31:49.466Z,22.98
2018-05-09T22:34:15.516Z,23.03
2018-05-09T22:36:41.504Z,23.02
2018-05-09T22:39:07.479Z,23.02
2018-05-09T22:41:33.456Z,23.03
2018-05-09T22:43:59.420Z,23.04
2018-05-09T22:46:25.403Z,23.03
2018-05-09T22:48:51.384Z,22.99
2018-05-09T22:51:17.360Z,23.03
2018-05-09T22:53:43.356Z,23.01
2018-05-09T22:56:09.328Z,22.99
2018-05-09T22:58:35.290Z,23.02
2018-05-09T23:01:01.278Z,23.02
2018-05-09T23:03:27.234Z,23.03
2018-05-09T23:05:53.225Z,23.01
2018-05-09T23:08:19.183Z,23.00
2018-05-09T23:10:45.147Z,23.03
2018-05-09T23:13:11.098Z,23.03
2018-05-09T23:15:37.077Z,22.99
2018-05-09T23:18:03.052Z,23.03
2018-05-09T23:20:29.019Z,23.05
2018-05-09T23:22:54.991Z,23.00
2018-05-09T23:25:20.948Z,23.02
2018-05-09T23:27:46.911Z,23.00
2018-05-09T23:30:12.877Z,22.99
2018-05-09T23:32:38.896Z,22.99
2018-05-09T23:35:04.867Z,23.00
2018-05-09T23:37:30.821Z,22.97
2018-05-09T23:39:56.854Z,22.97
2018-05-09T23:42:22.804Z,23.03
2018-05-09T23:44:48.808Z,23.03
2018-05-09T23:47:14.758Z,23.04
2018-05-09T23:49:40.717Z,23.02
2018-05-09T23:52:06.698Z,23.01
2018-05-09T23:54:32.752Z,22.99
2018-05-09T23:56:58.708Z,23.03
2018-05-09T23:59:24.669Z,23.07
